Time;durP1;ratioP1;P1;durP2;ratioP2;P2;SDS_P1;SDS_P2;PMS_P1;PMS_P2;Temp;Humidity;BMP_temperature;BMP_pressure;BME280_temperature;BME280_humidity;BME280_pressure;Samples;Min_cycle;Max_cycle;Signal;HPM_P1;HPM_P2
2023/06/01 00:00:31;;;;;;;23.55;14.35;;;;;;;;;;5056701;28;20021;-73
2023/06/01 00:02:57;;;;;;;23.25;15.65;;;;;;;;;;5064493;28;20130;-72
2023/06/01 00:05:23;;;;;;;17.08;10.73;;;;;;;;;;5050808;28;20596;-71
2023/06/01 00:07:49;;;;;;;22.80;15.40;;;;;;;;;;5064119;28;20374;-73
2023/06/01 00:10:15;;;;;;;23.75;16.27;;;;;;;;;;5067221;28;20475;-73
2023/06/01 00:12:42;;;;;;;27.40;16.90;;;;;;;;;;5064463;28;20189;-73
2023/06/01 00:15:09;;;;;;;16.90;10.07;;;;;;;;;;5058793;28;20052;-73
2023/06/01 00:17:35;;;;;;;18.85;11.85;;;;;;;;;;5071951;28;20033;-72
2023/06/01 00:20:01;;;;;;;17.35;10.82;;;;;;;;;;5071781;28;20025;-73
2023/06/01 00:22:34;;;;;;;16.42;11.63;;;;;;;;;;5072454;28;20035;-72
2023/06/01 00:25:00;;;;;;;20.38;12.40;;;;;;;;;;5053730;28;20031;-72
2023/06/01 00:27:26;;;;;;;20.42;14.40;;;;;;;;;;5059694;28;20040;-74
2023/06/01 00:29:52;;;;;;;17.27;12.32;;;;;;;;;;5072439;28;20047;-73
2023/06/01 00:32:18;;;;;;;22.95;14.65;;;;;;;;;;5059905;28;20024;-72
2023/06/01 00:34:44;;;;;;;16.38;9.18;;;;;;;;;;5072539;28;20020;-72
2023/06/01 00:37:10;;;;;;;21.10;12.23;;;;;;;;;;5059413;28;20036;-73
2023/06/01 00:39:36;;;;;;;18.13;11.77;;;;;;;;;;5059645;28;20475;-72
2023/06/01 00:42:02;;;;;;;11.98;6.40;;;;;;;;;;5072702;28;20089;-71
2023/06/01 00:44:29;;;;;;;21.50;12.15;;;;;;;;;;5053854;28;20028;-75
2023/06/01 00:46:55;;;;;;;16.38;10.10;;;;;;;;;;5066180;28;20032;-72
2023/06/01 00:49:21;;;;;;;18.75;10.55;;;;;;;;;;5073106;28;20028;-72
2023/06/01 00:51:47;;;;;;;20.15;8.90;;;;;;;;;;5067379;28;20047;-72
2023/06/01 00:54:13;;;;;;;21.38;11.55;;;;;;;;;;5072721;28;21578;-72
2023/06/01 00:56:39;;;;;;;21.73;12.07;;;;;;;;;;5072374;28;20024;-72
2023/06/01 00:59:06;;;;;;;21.35;12.57;;;;;;;;;;5065573;28;20095;-72
2023/06/01 01:01:33;;;;;;;19.42;9.50;;;;;;;;;;5055457;28;20503;-72
2023/06/01 01:04:00;;;;;;;23.23;11.38;;;;;;;;;;5065363;28;20013;-72
2023/06/01 01:06:34;;;;;;;19.98;11.57;;;;;;;;;;5065376;28;20478;-71
2023/06/01 01:09:08;;;;;;;17.45;9.82;;;;;;;;;;5062053;28;20037;-74
2023/06/01 01:11:37;;;;;;;19.15;10.90;;;;;;;;;;5055832;28;20762;-73
2023/06/01 01:14:10;;;;;;;17.55;10.70;;;;;;;;;;5061613;28;20029;-72
2023/06/01 01:17:11;;;;;;;17.48;9.02;;;;;;;;;;5067137;28;20061;-72
2023/06/01 01:19:53;;;;;;;17.05;10.23;;;;;;;;;;4975850;28;20042;-73
2023/06/01 01:22:38;;;;;;;17.95;8.48;;;;;;;;;;5046225;28;20025;-72
2023/06/01 01:25:39;;;;;;;16.23;8.23;;;;;;;;;;5058739;28;20497;-72
2023/06/01 01:28:05;;;;;;;15.27;8.40;;;;;;;;;;5008113;28;20168;-72
2023/06/01 01:30:32;;;;;;;10.77;6.20;;;;;;;;;;5037829;28;20510;-72
2023/06/01 01:32:59;;;;;;;16.50;8.68;;;;;;;;;;5070438;28;20025;-72
2023/06/01 01:35:25;;;;;;;16.67;8.20;;;;;;;;;;5064958;28;20522;-73
2023/06/01 01:37:52;;;;;;;20.10;9.57;;;;;;;;;;5055018;28;20025;-74
2023/06/01 01:40:18;;;;;;;12.85;7.20;;;;;;;;;;5051162;28;20024;-72
2023/06/01 01:42:44;;;;;;;11.98;6.63;;;;;;;;;;5050915;28;20048;-72
2023/06/01 01:45:10;;;;;;;14.88;8.05;;;;;;;;;;5059788;28;20020;-72
2023/06/01 01:47:56;;;;;;;13.27;5.63;;;;;;;;;;5054777;28;20128;-72
2023/06/01 01:50:23;;;;;;;12.00;6.60;;;;;;;;;;5049504;28;20029;-72
2023/06/01 01:52:49;;;;;;;15.77;9.80;;;;;;;;;;5068128;28;20033;-71
2023/06/01 01:55:17;;;;;;;13.07;8.82;;;;;;;;;;5053626;28;20017;-73
2023/06/01 01:57:44;;;;;;;18.08;10.10;;;;;;;;;;5054774;28;20402;-71
2023/06/01 02:00:12;;;;;;;16.25;9.30;;;;;;;;;;5071803;28;20060;-73
2023/06/01 02:02:38;;;;;;;21.55;8.50;;;;;;;;;;5070985;28;20056;-72
2023/06/01 02:05:04;;;;;;;15.50;9.68;;;;;;;;;;5070752;28;20083;-73
2023/06/01 02:07:33;;;;;;;13.05;8.15;;;;;;;;;;5057266;28;20024;-73
2023/06/01 02:09:59;;;;;;;18.35;9.85;;;;;;;;;;5052014;28;20461;-72
2023/06/01 02:12:25;;;;;;;14.68;9.38;;;;;;;;;;5070356;28;20048;-73
2023/06/01 02:14:51;;;;;;;16.85;10.48;;;;;;;;;;5057716;28;20028;-73
2023/06/01 02:17:17;;;;;;;12.40;7.82;;;;;;;;;;5057188;28;20028;-72
2023/06/01 02:19:44;;;;;;;17.17;10.50;;;;;;;;;;5057784;28;20021;-71
2023/06/01 02:22:10;;;;;;;14.30;10.05;;;;;;;;;;5070198;28;20470;-74
2023/06/01 02:24:36;;;;;;;21.63;10.70;;;;;;;;;;5057685;28;20025;-74
2023/06/01 02:27:03;;;;;;;21.63;11.07;;;;;;;;;;5068320;28;20149;-73
2023/06/01 02:29:29;;;;;;;14.70;8.23;;;;;;;;;;5059458;28;20467;-72
2023/06/01 02:31:55;;;;;;;18.70;10.27;;;;;;;;;;5069870;28;20059;-71
2023/06/01 02:34:21;;;;;;;16.85;9.10;;;;;;;;;;5048483;28;20136;-72
2023/06/01 02:36:50;;;;;;;19.13;10.27;;;;;;;;;;5064121;28;20035;-72
2023/06/01 02:39:17;;;;;;;15.20;9.90;;;;;;;;;;5050460;28;20033;-71
2023/06/01 02:41:43;;;;;;;17.23;10.25;;;;;;;;;;5048174;28;20378;-72
2023/06/01 02:44:09;;;;;;;23.02;12.05;;;;;;;;;;5049771;28;20164;-71
2023/06/01 02:46:35;;;;;;;16.98;10.75;;;;;;;;;;5063977;28;20031;-72
2023/06/01 02:49:03;;;;;;;16.77;10.10;;;;;;;;;;5049775;28;20083;-71
2023/06/01 02:51:31;;;;;;;13.82;7.72;;;;;;;;;;5050034;28;20029;-72
2023/06/01 02:53:57;;;;;;;16.20;8.88;;;;;;;;;;5059465;28;20121;-72
2023/06/01 02:56:23;;;;;;;12.27;7.88;;;;;;;;;;5067389;28;20101;-71
2023/06/01 02:58:50;;;;;;;21.15;11.07;;;;;;;;;;5049195;28;20045;-70
2023/06/01 03:01:16;;;;;;;18.75;10.60;;;;;;;;;;5056387;28;20035;-71
2023/06/01 03:03:44;;;;;;;15.90;9.35;;;;;;;;;;5049487;28;20040;-72
2023/06/01 03:06:13;;;;;;;15.25;8.95;;;;;;;;;;5065673;28;20027;-72
2023/06/01 03:08:39;;;;;;;16.10;9.50;;;;;;;;;;5069402;28;20056;-71
2023/06/01 03:11:05;;;;;;;14.35;9.75;;;;;;;;;;5037872;28;20043;-72
2023/06/01 03:13:31;;;;;;;26.95;11.27;;;;;;;;;;5049583;28;20399;-72
2023/06/01 03:15:57;;;;;;;15.32;7.30;;;;;;;;;;5067491;28;20532;-72
2023/06/01 03:18:23;;;;;;;22.75;9.85;;;;;;;;;;5052804;28;20383;-72
2023/06/01 03:20:49;;;;;;;13.10;6.07;;;;;;;;;;5070900;28;20024;-71
2023/06/01 03:23:16;;;;;;;10.48;6.47;;;;;;;;;;5072405;28;20052;-71
2023/06/01 03:25:42;;;;;;;14.93;10.23;;;;;;;;;;5053948;28;20082;-71
2023/06/01 03:28:08;;;;;;;15.80;8.68;;;;;;;;;;5061177;28;20153;-73
2023/06/01 03:30:34;;;;;;;16.55;9.93;;;;;;;;;;5064741;28;20478;-72
2023/06/01 03:33:00;;;;;;;11.45;6.88;;;;;;;;;;5051610;28;20501;-71
2023/06/01 03:35:26;;;;;;;17.25;9.27;;;;;;;;;;5051954;28;20017;-71
2023/06/01 03:37:53;;;;;;;13.95;7.68;;;;;;;;;;5063089;28;20119;-73
2023/06/01 03:40:20;;;;;;;11.65;6.35;;;;;;;;;;5066371;28;20036;-73
2023/06/01 03:42:46;;;;;;;16.50;8.50;;;;;;;;;;5051682;28;20028;-73
2023/06/01 03:45:13;;;;;;;18.42;9.55;;;;;;;;;;5055593;28;20036;-72
2023/06/01 03:47:40;;;;;;;15.75;9.48;;;;;;;;;;5054769;28;20093;-72
2023/06/01 03:50:07;;;;;;;17.08;8.43;;;;;;;;;;5058081;28;20122;-71
2023/06/01 03:52:33;;;;;;;14.50;7.85;;;;;;;;;;5066241;28;20109;-73
2023/06/01 03:55:04;;;;;;;14.43;8.93;;;;;;;;;;5066971;28;20367;-71
2023/06/01 03:57:30;;;;;;;16.13;9.18;;;;;;;;;;5054422;28;20029;-72
2023/06/01 03:59:57;;;;;;;19.02;9.43;;;;;;;;;;5071665;28;20020;-72
2023/06/01 04:02:23;;;;;;;15.95;9.32;;;;;;;;;;5062436;28;20463;-71
2023/06/01 04:04:50;;;;;;;14.55;8.65;;;;;;;;;;5070633;28;20028;-71
2023/06/01 04:07:21;;;;;;;15.02;7.88;;;;;;;;;;5059594;28;20044;-71
2023/06/01 04:09:47;;;;;;;19.10;7.60;;;;;;;;;;5036436;28;20047;-72
2023/06/01 04:12:14;;;;;;;17.00;9.05;;;;;;;;;;5073219;28;20437;-73
2023/06/01 04:14:40;;;;;;;13.00;8.20;;;;;;;;;;5073310;28;20029;-72
2023/06/01 04:17:06;;;;;;;19.48;9.48;;;;;;;;;;5073363;28;20072;-72
2023/06/01 04:19:35;;;;;;;12.52;7.10;;;;;;;;;;5073391;28;20084;-72
2023/06/01 04:22:01;;;;;;;15.75;7.25;;;;;;;;;;5072738;28;20100;-71
2023/06/01 04:24:27;;;;;;;17.90;8.75;;;;;;;;;;5072037;28;20024;-72
2023/06/01 04:26:56;;;;;;;19.13;7.80;;;;;;;;;;5065078;28;20029;-71
2023/06/01 04:29:22;;;;;;;13.75;8.48;;;;;;;;;;5069231;28;20051;-72
2023/06/01 04:31:48;;;;;;;15.80;7.72;;;;;;;;;;5058810;28;20044;-70
2023/06/01 04:34:15;;;;;;;16.75;7.03;;;;;;;;;;5067025;28;20083;-73
2023/06/01 04:36:41;;;;;;;15.63;8.52;;;;;;;;;;5070300;28;20127;-72
2023/06/01 04:39:07;;;;;;;15.82;7.57;;;;;;;;;;5062516;28;20048;-71
2023/06/01 04:41:35;;;;;;;13.15;7.75;;;;;;;;;;5055502;28;20471;-72
2023/06/01 04:44:05;;;;;;;16.35;8.90;;;;;;;;;;5069067;28;20027;-72
2023/06/01 04:46:31;;;;;;;21.98;8.88;;;;;;;;;;5055319;28;20029;-72
2023/06/01 04:48:59;;;;;;;16.00;6.82;;;;;;;;;;5065360;28;20033;-71
2023/06/01 04:51:26;;;;;;;15.38;9.02;;;;;;;;;;5057718;28;20035;-71
2023/06/01 04:53:53;;;;;;;15.65;7.78;;;;;;;;;;5055831;28;22183;-71
2023/06/01 04:56:24;;;;;;;13.15;7.22;;;;;;;;;;5075994;28;20024;-71
2023/06/01 04:58:51;;;;;;;13.88;6.70;;;;;;;;;;5076411;28;20044;-71
2023/06/01 05:01:17;;;;;;;20.63;10.05;;;;;;;;;;5058865;28;20021;-73
2023/06/01 05:03:44;;;;;;;18.35;8.73;;;;;;;;;;5059959;28;20108;-73
2023/06/01 05:06:13;;;;;;;17.40;9.27;;;;;;;;;;5076824;28;20020;-72
2023/06/01 05:08:40;;;;;;;15.75;9.25;;;;;;;;;;5077469;28;20039;-71
2023/06/01 05:11:06;;;;;;;17.65;9.90;;;;;;;;;;5058503;28;20043;-71
2023/06/01 05:13:32;;;;;;;16.55;8.68;;;;;;;;;;5079201;28;20274;-72
2023/06/01 05:15:58;;;;;;;19.15;8.27;;;;;;;;;;5077572;28;20020;-71
2023/06/01 05:18:25;;;;;;;20.55;9.32;;;;;;;;;;5049165;28;20465;-71
2023/06/01 05:20:52;;;;;;;16.35;8.15;;;;;;;;;;5051664;28;20060;-71
2023/06/01 05:23:18;;;;;;;18.60;9.38;;;;;;;;;;5071017;28;20029;-72
2023/06/01 05:25:44;;;;;;;16.50;8.68;;;;;;;;;;5080736;28;20486;-71
2023/06/01 05:28:10;;;;;;;14.07;8.25;;;;;;;;;;5065034;28;20207;-72
2023/06/01 05:30:36;;;;;;;15.35;7.43;;;;;;;;;;5069022;28;20021;-72
2023/06/01 05:33:03;;;;;;;15.85;8.82;;;;;;;;;;5053596;28;20059;-73
2023/06/01 05:35:29;;;;;;;10.35;6.13;;;;;;;;;;5057633;28;20544;-71
2023/06/01 05:37:55;;;;;;;15.13;8.05;;;;;;;;;;5062351;28;20025;-71
2023/06/01 05:40:21;;;;;;;12.93;7.00;;;;;;;;;;5058203;28;20414;-71
2023/06/01 05:42:47;;;;;;;15.85;8.05;;;;;;;;;;5073511;28;20051;-70
2023/06/01 05:45:13;;;;;;;12.68;7.50;;;;;;;;;;5071938;28;20075;-73
2023/06/01 05:47:39;;;;;;;14.38;7.03;;;;;;;;;;5074316;28;20037;-73
2023/06/01 05:50:06;;;;;;;13.48;7.78;;;;;;;;;;5069774;28;20021;-72
2023/06/01 05:52:32;;;;;;;15.45;7.63;;;;;;;;;;5064882;28;20604;-72
2023/06/01 05:54:58;;;;;;;18.00;8.30;;;;;;;;;;5073101;28;20028;-72
2023/06/01 05:57:24;;;;;;;15.75;7.25;;;;;;;;;;5052305;28;20052;-72
2023/06/01 05:59:53;;;;;;;15.40;9.25;;;;;;;;;;5068411;28;20579;-71
2023/06/01 06:02:19;;;;;;;16.58;8.07;;;;;;;;;;5066891;28;20085;-71
2023/06/01 06:04:45;;;;;;;14.55;7.90;;;;;;;;;;5055214;28;20064;-72
2023/06/01 06:07:12;;;;;;;12.07;6.82;;;;;;;;;;5053158;28;20029;-71
2023/06/01 06:09:38;;;;;;;15.32;9.27;;;;;;;;;;5053948;28;20115;-73
2023/06/01 06:12:06;;;;;;;16.92;9.27;;;;;;;;;;5051902;28;20534;-74
2023/06/01 06:14:32;;;;;;;13.02;8.32;;;;;;;;;;5052352;28;20075;-73
2023/06/01 06:16:58;;;;;;;16.48;7.68;;;;;;;;;;5051975;28;20017;-73
2023/06/01 06:19:24;;;;;;;18.77;9.82;;;;;;;;;;5067555;28;20074;-73
2023/06/01 06:21:50;;;;;;;18.13;8.48;;;;;;;;;;5053480;28;20036;-74
2023/06/01 06:24:16;;;;;;;22.15;9.20;;;;;;;;;;5058015;28;20028;-74
2023/06/01 06:26:42;;;;;;;16.80;9.05;;;;;;;;;;5066683;28;20082;-74
2023/06/01 06:29:08;;;;;;;19.83;10.05;;;;;;;;;;5065930;28;20109;-74
2023/06/01 06:31:34;;;;;;;14.70;8.45;;;;;;;;;;5070162;28;20028;-74
2023/06/01 06:34:00;;;;;;;13.98;7.13;;;;;;;;;;5037612;28;20032;-74
2023/06/01 06:36:26;;;;;;;15.02;7.78;;;;;;;;;;5069105;28;20127;-74
2023/06/01 06:38:52;;;;;;;20.85;7.63;;;;;;;;;;5051302;28;20624;-73
2023/06/01 06:41:18;;;;;;;14.23;8.45;;;;;;;;;;5070196;28;20025;-75
2023/06/01 06:43:44;;;;;;;21.25;8.75;;;;;;;;;;5069618;28;20118;-76
2023/06/01 06:46:10;;;;;;;13.88;6.82;;;;;;;;;;5068845;28;20025;-75
2023/06/01 06:48:36;;;;;;;14.10;6.35;;;;;;;;;;5051938;28;20071;-75
2023/06/01 06:51:03;;;;;;;13.30;7.50;;;;;;;;;;5056017;28;20047;-75
2023/06/01 06:53:29;;;;;;;15.68;7.78;;;;;;;;;;5068399;28;20528;-76
2023/06/01 06:55:56;;;;;;;18.13;7.90;;;;;;;;;;5068575;28;20024;-76
2023/06/01 06:58:22;;;;;;;11.13;5.25;;;;;;;;;;5049753;28;20159;-75
2023/06/01 07:00:49;;;;;;;11.80;6.25;;;;;;;;;;5067982;28;20033;-75
2023/06/01 07:03:15;;;;;;;18.42;8.48;;;;;;;;;;5050228;28;20076;-75
2023/06/01 07:05:41;;;;;;;18.10;8.57;;;;;;;;;;5050071;28;20037;-76
2023/06/01 07:08:07;;;;;;;7.97;4.00;;;;;;;;;;5040709;28;20040;-74
2023/06/01 07:10:33;;;;;;;14.13;7.20;;;;;;;;;;5048923;28;20029;-75
2023/06/01 07:12:59;;;;;;;14.75;7.28;;;;;;;;;;5053996;28;20024;-76
2023/06/01 07:15:26;;;;;;;11.23;6.10;;;;;;;;;;5068644;28;20422;-76
2023/06/01 07:17:52;;;;;;;10.77;4.78;;;;;;;;;;5054255;28;20021;-75
2023/06/01 07:20:18;;;;;;;15.20;7.75;;;;;;;;;;5056292;28;20087;-75
2023/06/01 07:22:44;;;;;;;15.73;6.88;;;;;;;;;;5048194;28;20025;-78
2023/06/01 07:25:12;;;;;;;15.25;7.88;;;;;;;;;;5060718;28;20070;-73
2023/06/01 07:27:42;;;;;;;14.98;7.10;;;;;;;;;;5046894;28;20044;-74
2023/06/01 07:30:09;;;;;;;10.70;4.10;;;;;;;;;;5061669;28;20028;-76
2023/06/01 07:32:35;;;;;;;7.18;3.13;;;;;;;;;;5050295;28;20040;-73
2023/06/01 07:35:01;;;;;;;9.20;4.03;;;;;;;;;;5053236;28;20060;-73
2023/06/01 07:37:27;;;;;;;8.52;4.63;;;;;;;;;;5049981;28;20647;-73
2023/06/01 07:39:54;;;;;;;10.73;4.80;;;;;;;;;;5061173;28;20414;-72
2023/06/01 07:42:20;;;;;;;10.80;4.85;;;;;;;;;;5067874;28;20021;-74
2023/06/01 07:44:50;;;;;;;11.65;5.13;;;;;;;;;;5068667;28;20497;-73
2023/06/01 07:47:16;;;;;;;12.75;6.88;;;;;;;;;;5049863;28;20058;-73
2023/06/01 07:49:43;;;;;;;17.20;7.40;;;;;;;;;;5062955;28;20423;-74
2023/06/01 07:52:09;;;;;;;15.82;8.27;;;;;;;;;;5067176;28;20039;-73
2023/06/01 07:54:36;;;;;;;9.70;6.30;;;;;;;;;;5067657;28;20025;-74
2023/06/01 07:57:04;;;;;;;17.40;10.40;;;;;;;;;;5067022;28;20028;-73
2023/06/01 07:59:30;;;;;;;11.38;5.97;;;;;;;;;;5062661;28;20049;-74
2023/06/01 08:01:56;;;;;;;12.30;6.60;;;;;;;;;;5050166;28;20545;-74
2023/06/01 08:04:22;;;;;;;12.50;6.78;;;;;;;;;;5048095;28;20036;-74
2023/06/01 08:06:52;;;;;;;15.90;8.57;;;;;;;;;;5048047;28;20045;-74
2023/06/01 08:09:19;;;;;;;12.98;6.82;;;;;;;;;;5051534;28;20495;-73
2023/06/01 08:11:45;;;;;;;12.73;5.53;;;;;;;;;;5053555;28;20024;-74
2023/06/01 08:14:11;;;;;;;9.73;4.70;;;;;;;;;;5064267;28;20384;-74
2023/06/01 08:16:37;;;;;;;15.43;7.30;;;;;;;;;;5061187;28;20112;-73
2023/06/01 08:19:03;;;;;;;14.35;6.75;;;;;;;;;;5057197;28;20032;-73
2023/06/01 08:21:29;;;;;;;9.88;4.68;;;;;;;;;;5064433;28;20535;-73
2023/06/01 08:23:56;;;;;;;10.93;5.68;;;;;;;;;;5068060;28;20024;-74
2023/06/01 08:26:22;;;;;;;14.27;7.88;;;;;;;;;;5054353;28;20036;-74
2023/06/01 08:28:51;;;;;;;10.75;5.20;;;;;;;;;;5069441;28;20045;-74
2023/06/01 08:31:21;;;;;;;10.68;4.55;;;;;;;;;;5072419;28;20036;-74
2023/06/01 08:33:48;;;;;;;7.70;4.07;;;;;;;;;;5054981;28;20024;-74
2023/06/01 08:36:14;;;;;;;12.02;5.15;;;;;;;;;;5072294;28;20186;-74
2023/06/01 08:38:41;;;;;;;13.13;7.13;;;;;;;;;;5058539;28;20029;-73
2023/06/01 08:41:19;;;;;;;18.15;6.93;;;;;;;;;;5065635;28;20104;-74
2023/06/01 08:43:51;;;;;;;17.42;7.70;;;;;;;;;;5069773;28;20028;-74
2023/06/01 08:46:19;;;;;;;17.55;6.47;;;;;;;;;;5060484;28;20060;-74
2023/06/01 08:48:45;;;;;;;16.60;6.63;;;;;;;;;;5065450;28;20033;-74
2023/06/01 08:51:11;;;;;;;8.88;4.65;;;;;;;;;;5050760;28;20303;-74
2023/06/01 08:53:40;;;;;;;7.93;3.92;;;;;;;;;;5050106;28;20028;-75
2023/06/01 08:56:06;;;;;;;12.10;5.35;;;;;;;;;;5071051;28;20021;-75
2023/06/01 08:58:32;;;;;;;10.52;5.38;;;;;;;;;;5058324;28;20132;-76
2023/06/01 09:00:58;;;;;;;13.27;6.65;;;;;;;;;;5065577;28;20057;-74
2023/06/01 09:03:25;;;;;;;9.55;4.15;;;;;;;;;;5066039;28;20020;-73
2023/06/01 09:05:51;;;;;;;8.38;3.80;;;;;;;;;;5063965;28;20060;-74
2023/06/01 09:08:18;;;;;;;12.63;6.80;;;;;;;;;;5065743;28;20051;-73
2023/06/01 09:10:44;;;;;;;13.30;6.70;;;;;;;;;;5050554;28;20033;-75
2023/06/01 09:13:11;;;;;;;9.90;4.82;;;;;;;;;;5064695;28;20036;-73
2023/06/01 09:15:50;;;;;;;11.55;6.20;;;;;;;;;;5062343;28;20036;-74
2023/06/01 09:18:16;;;;;;;10.63;5.13;;;;;;;;;;5070431;28;20031;-74
2023/06/01 09:20:44;;;;;;;10.32;5.07;;;;;;;;;;5071480;28;20016;-74
2023/06/01 09:23:10;;;;;;;8.40;4.03;;;;;;;;;;5071968;28;20021;-74
2023/06/01 09:25:36;;;;;;;8.80;4.03;;;;;;;;;;5071390;28;20039;-74
2023/06/01 09:28:02;;;;;;;7.40;3.28;;;;;;;;;;5066784;28;20151;-74
2023/06/01 09:30:42;;;;;;;9.48;4.22;;;;;;;;;;5055795;28;20375;-74
2023/06/01 09:33:15;;;;;;;8.82;4.03;;;;;;;;;;5070026;28;20764;-75
2023/06/01 09:35:42;;;;;;;12.55;3.95;;;;;;;;;;5069422;28;20762;-76
2023/06/01 09:38:09;;;;;;;8.73;5.07;;;;;;;;;;5068827;28;20127;-75
2023/06/01 09:40:35;;;;;;;8.95;3.83;;;;;;;;;;5052941;28;20032;-75
2023/06/01 09:43:02;;;;;;;7.00;4.20;;;;;;;;;;5070179;28;20032;-75
2023/06/01 09:45:29;;;;;;;10.07;4.38;;;;;;;;;;5039144;28;20031;-75
2023/06/01 09:48:15;;;;;;;10.65;5.28;;;;;;;;;;5070587;28;20391;-75
2023/06/01 09:50:42;;;;;;;7.82;3.45;;;;;;;;;;5050839;28;20552;-75
2023/06/01 09:53:08;;;;;;;8.30;3.70;;;;;;;;;;5050348;28;20391;-74
2023/06/01 09:55:34;;;;;;;11.50;5.03;;;;;;;;;;5050333;28;20430;-74
2023/06/01 09:58:20;;;;;;;7.18;3.15;;;;;;;;;;5062978;28;20077;-75
2023/06/01 10:00:47;;;;;;;9.63;4.70;;;;;;;;;;5052713;28;20115;-75
2023/06/01 10:03:14;;;;;;;8.50;3.33;;;;;;;;;;5039491;28;20079;-75
2023/06/01 10:05:41;;;;;;;13.02;5.18;;;;;;;;;;5062410;28;20055;-75
2023/06/01 10:08:07;;;;;;;6.35;2.97;;;;;;;;;;5068986;28;20064;-77
2023/06/01 10:10:33;;;;;;;11.85;4.68;;;;;;;;;;5069951;28;20387;-75
2023/06/01 10:12:59;;;;;;;12.80;5.55;;;;;;;;;;5063655;28;20056;-75
2023/06/01 10:15:25;;;;;;;12.50;5.30;;;;;;;;;;5045905;28;20039;-74
2023/06/01 10:17:51;;;;;;;7.65;3.50;;;;;;;;;;5068542;28;20036;-74
2023/06/01 10:20:17;;;;;;;7.07;3.85;;;;;;;;;;5050314;28;20029;-75
2023/06/01 10:22:43;;;;;;;7.43;3.40;;;;;;;;;;5060353;28;20028;-77
2023/06/01 10:25:12;;;;;;;8.55;4.50;;;;;;;;;;5067612;28;20032;-76
2023/06/01 10:27:44;;;;;;;8.55;3.88;;;;;;;;;;5069581;28;20551;-73
2023/06/01 10:30:10;;;;;;;8.98;3.72;;;;;;;;;;5066651;28;20081;-76
2023/06/01 10:32:43;;;;;;;7.28;3.85;;;;;;;;;;5048218;28;20461;-75
2023/06/01 10:35:11;;;;;;;8.80;4.70;;;;;;;;;;5062781;28;20115;-76
2023/06/01 10:37:37;;;;;;;9.63;3.85;;;;;;;;;;5049308;28;20079;-75
2023/06/01 10:40:30;;;;;;;8.02;3.55;;;;;;;;;;5048616;28;20091;-76
2023/06/01 10:42:56;;;;;;;8.60;4.38;;;;;;;;;;5046628;28;20029;-75
2023/06/01 10:45:35;;;;;;;9.13;3.80;;;;;;;;;;5061432;28;20035;-75
2023/06/01 10:48:02;;;;;;;6.80;3.10;;;;;;;;;;5063570;28;20053;-75
2023/06/01 10:50:28;;;;;;;7.97;3.83;;;;;;;;;;5056062;28;20426;-75
2023/06/01 10:52:56;;;;;;;6.95;3.53;;;;;;;;;;5069013;28;20024;-75
2023/06/01 10:55:23;;;;;;;11.25;4.88;;;;;;;;;;5068256;28;20016;-76
2023/06/01 10:57:50;;;;;;;11.00;4.85;;;;;;;;;;5057830;28;20033;-73
2023/06/01 11:00:17;;;;;;;13.48;5.25;;;;;;;;;;5051944;28;20040;-73
2023/06/01 11:02:44;;;;;;;11.27;5.18;;;;;;;;;;5050294;28;20028;-73
2023/06/01 11:05:29;;;;;;;12.50;5.28;;;;;;;;;;5064259;28;20049;-72
2023/06/01 11:07:55;;;;;;;8.20;3.75;;;;;;;;;;5047996;28;20483;-72
2023/06/01 11:10:40;;;;;;;11.02;4.50;;;;;;;;;;5048147;28;20047;-73
2023/06/01 11:13:17;;;;;;;11.20;4.50;;;;;;;;;;5048198;28;20142;-73
2023/06/01 11:16:04;;;;;;;8.77;4.35;;;;;;;;;;5066236;28;20111;-73
2023/06/01 11:18:42;;;;;;;10.35;3.85;;;;;;;;;;5051290;28;20486;-73
2023/06/01 11:21:18;;;;;;;11.55;3.50;;;;;;;;;;5050230;28;20542;-72
2023/06/01 11:23:45;;;;;;;6.75;3.13;;;;;;;;;;5067474;28;20452;-73
2023/06/01 11:26:14;;;;;;;10.02;4.28;;;;;;;;;;5067068;28;20395;-73
2023/06/01 11:28:40;;;;;;;7.32;3.17;;;;;;;;;;5063661;28;20037;-74
2023/06/01 11:31:10;;;;;;;6.88;3.53;;;;;;;;;;5053000;28;20025;-74
2023/06/01 11:33:38;;;;;;;9.00;4.05;;;;;;;;;;5050997;28;20547;-74
2023/06/01 11:36:05;;;;;;;8.15;3.60;;;;;;;;;;5047779;28;20055;-72
2023/06/01 11:38:41;;;;;;;9.40;3.97;;;;;;;;;;5048119;28;20017;-73
2023/06/01 11:41:08;;;;;;;7.55;3.47;;;;;;;;;;5047404;28;20049;-73
2023/06/01 11:43:34;;;;;;;10.40;5.35;;;;;;;;;;5049836;28;20097;-73
2023/06/01 11:46:04;;;;;;;7.90;3.20;;;;;;;;;;5067071;28;20040;-74
2023/06/01 11:48:31;;;;;;;8.95;3.40;;;;;;;;;;5054339;28;20041;-74
2023/06/01 11:51:00;;;;;;;7.38;3.30;;;;;;;;;;5053090;28;20029;-73
2023/06/01 11:53:26;;;;;;;12.85;4.78;;;;;;;;;;5046879;28;20112;-73
2023/06/01 11:55:53;;;;;;;8.07;3.72;;;;;;;;;;5048213;28;20128;-73
2023/06/01 11:58:26;;;;;;;13.18;5.25;;;;;;;;;;5064454;28;20100;-73
2023/06/01 12:00:53;;;;;;;13.98;4.78;;;;;;;;;;5060763;28;20028;-73
2023/06/01 12:03:19;;;;;;;9.02;4.13;;;;;;;;;;5046314;28;20032;-73
2023/06/01 12:05:47;;;;;;;9.45;4.38;;;;;;;;;;5062540;28;20025;-74
2023/06/01 12:08:14;;;;;;;8.65;4.35;;;;;;;;;;5061087;28;20122;-73
2023/06/01 12:10:42;;;;;;;15.80;4.65;;;;;;;;;;5060397;28;20021;-73
2023/06/01 12:13:08;;;;;;;7.10;3.60;;;;;;;;;;5062690;28;20371;-73
2023/06/01 12:15:34;;;;;;;8.98;3.72;;;;;;;;;;5063485;28;20039;-73
2023/06/01 12:18:00;;;;;;;10.35;3.97;;;;;;;;;;5054081;28;20025;-72
2023/06/01 12:20:45;;;;;;;9.75;4.50;;;;;;;;;;5068290;28;20085;-73
2023/06/01 12:23:19;;;;;;;10.48;3.95;;;;;;;;;;5065018;28;20096;-73
2023/06/01 12:25:53;;;;;;;8.80;3.95;;;;;;;;;;5060393;28;20531;-73
2023/06/01 12:28:19;;;;;;;9.93;3.40;;;;;;;;;;5041205;28;20029;-74
2023/06/01 12:30:46;;;;;;;9.90;4.03;;;;;;;;;;5058458;28;20022;-72
2023/06/01 12:33:31;;;;;;;7.72;3.83;;;;;;;;;;5038220;28;20052;-72
2023/06/01 12:35:58;;;;;;;9.20;3.92;;;;;;;;;;5069145;28;20032;-73
2023/06/01 12:38:24;;;;;;;10.18;4.25;;;;;;;;;;5060115;28;20028;-73
2023/06/01 12:41:11;;;;;;;8.77;3.60;;;;;;;;;;5064472;28;20024;-73
2023/06/01 12:43:44;;;;;;;11.68;3.90;;;;;;;;;;5035395;28;20074;-72
2023/06/01 12:46:18;;;;;;;7.53;3.08;;;;;;;;;;5056669;28;20149;-73
2023/06/01 12:48:45;;;;;;;8.20;3.70;;;;;;;;;;5067379;28;20101;-73
2023/06/01 12:51:12;;;;;;;8.00;2.85;;;;;;;;;;5063859;28;20069;-72
2023/06/01 12:53:38;;;;;;;9.40;3.47;;;;;;;;;;5068642;28;20025;-73
2023/06/01 12:56:04;;;;;;;9.70;3.08;;;;;;;;;;5070453;28;20028;-73
2023/06/01 12:58:31;;;;;;;11.60;3.60;;;;;;;;;;5050882;28;20118;-73
2023/06/01 13:00:57;;;;;;;8.93;3.03;;;;;;;;;;5052848;28;20017;-74
2023/06/01 13:03:23;;;;;;;10.93;4.03;;;;;;;;;;5071668;28;20062;-73
2023/06/01 13:05:50;;;;;;;7.70;2.85;;;;;;;;;;5057845;28;20024;-73
2023/06/01 13:08:16;;;;;;;9.02;3.65;;;;;;;;;;5059746;28;20463;-74
2023/06/01 13:10:42;;;;;;;9.30;3.47;;;;;;;;;;5052352;28;20028;-74
2023/06/01 13:13:09;;;;;;;6.85;2.53;;;;;;;;;;5049544;28;20028;-74
2023/06/01 13:15:35;;;;;;;8.80;3.22;;;;;;;;;;5051285;28;20116;-73
2023/06/01 13:18:01;;;;;;;6.05;2.80;;;;;;;;;;5051337;28;20021;-73
2023/06/01 13:20:27;;;;;;;5.20;2.53;;;;;;;;;;5052034;28;20223;-73
2023/06/01 13:22:54;;;;;;;6.88;2.60;;;;;;;;;;5051559;28;20080;-73
2023/06/01 13:25:20;;;;;;;6.35;2.20;;;;;;;;;;5071208;28;20021;-73
2023/06/01 13:27:46;;;;;;;5.75;3.13;;;;;;;;;;5071910;28;20040;-73
2023/06/01 13:30:13;;;;;;;8.25;3.03;;;;;;;;;;5071361;28;20407;-72
2023/06/01 13:32:39;;;;;;;4.82;2.55;;;;;;;;;;5058384;28;20033;-73
2023/06/01 13:35:06;;;;;;;6.30;2.63;;;;;;;;;;5056680;28;20025;-72
2023/06/01 13:37:32;;;;;;;5.03;2.45;;;;;;;;;;5071629;28;20024;-73
2023/06/01 13:39:58;;;;;;;10.98;3.03;;;;;;;;;;5057992;28;20023;-72
2023/06/01 13:42:24;;;;;;;7.80;2.45;;;;;;;;;;5066204;28;20021;-74
2023/06/01 13:44:51;;;;;;;5.95;2.33;;;;;;;;;;5064168;28;20142;-72
2023/06/01 13:47:17;;;;;;;8.02;3.38;;;;;;;;;;5059581;28;20025;-72
2023/06/01 13:49:46;;;;;;;8.13;3.35;;;;;;;;;;5068240;28;20501;-72
2023/06/01 13:52:13;;;;;;;7.22;2.80;;;;;;;;;;5063765;28;20016;-73
2023/06/01 13:54:39;;;;;;;7.03;3.80;;;;;;;;;;5051764;28;20502;-72
2023/06/01 13:57:08;;;;;;;6.65;3.03;;;;;;;;;;5056388;28;20021;-73
2023/06/01 13:59:35;;;;;;;9.02;4.10;;;;;;;;;;5067996;28;20079;-74
2023/06/01 14:02:02;;;;;;;8.35;3.30;;;;;;;;;;5066189;28;20012;-74
2023/06/01 14:04:29;;;;;;;7.85;3.50;;;;;;;;;;5050318;28;20774;-73
2023/06/01 14:06:56;;;;;;;8.32;4.25;;;;;;;;;;5063487;28;20036;-74
2023/06/01 14:09:22;;;;;;;8.05;3.78;;;;;;;;;;5045671;28;20542;-74
2023/06/01 14:11:49;;;;;;;7.97;3.40;;;;;;;;;;5056084;28;20056;-74
2023/06/01 14:14:15;;;;;;;7.35;3.08;;;;;;;;;;5069578;28;20529;-73
2023/06/01 14:16:41;;;;;;;7.25;2.97;;;;;;;;;;5064948;28;20028;-73
2023/06/01 14:19:10;;;;;;;5.03;2.42;;;;;;;;;;5062095;28;20082;-74
2023/06/01 14:21:36;;;;;;;8.32;4.13;;;;;;;;;;5067386;28;20458;-73
2023/06/01 14:24:02;;;;;;;6.57;2.78;;;;;;;;;;5064899;28;20017;-73
2023/06/01 14:26:28;;;;;;;7.88;2.65;;;;;;;;;;5068169;28;20021;-75
2023/06/01 14:28:55;;;;;;;8.32;3.90;;;;;;;;;;5060299;28;20032;-73
2023/06/01 14:31:21;;;;;;;7.38;2.90;;;;;;;;;;5051533;28;20036;-73
2023/06/01 14:33:47;;;;;;;8.65;3.20;;;;;;;;;;5063823;28;20025;-74
2023/06/01 14:36:13;;;;;;;6.88;2.85;;;;;;;;;;5049673;28;20024;-73